createdAt,value
2022-11-30T00:01:15.666Z,101482.94
2022-11-30T00:03:43.817Z,101471.13
2022-11-30T00:06:13.913Z,101468.91
2022-11-30T00:08:41.888Z,101480.34
2022-11-30T00:11:14.873Z,101485.16
2022-11-30T00:13:42.392Z,101483.56
2022-11-30T00:16:09.794Z,101486.41
2022-11-30T00:18:37.729Z,101476.16
2022-11-30T00:21:08.831Z,101489.28
2022-11-30T00:23:39.487Z,101476.94
2022-11-30T00:26:09.481Z,101487.50
2022-11-30T00:28:38.525Z,101483.06
2022-11-30T00:31:08.364Z,101479.47
2022-11-30T00:33:37.875Z,101478.41
2022-11-30T00:36:07.938Z,101487.53
2022-11-30T00:38:35.935Z,101479.41
2022-11-30T00:41:03.202Z,101494.63
2022-11-30T00:43:31.260Z,101488.81
2022-11-30T00:45:58.668Z,101484.63
2022-11-30T00:48:26.265Z,101484.56
2022-11-30T00:50:53.805Z,101487.19
2022-11-30T00:53:21.906Z,101479.50
2022-11-30T00:55:49.553Z,101487.25
2022-11-30T00:58:17.461Z,101483.06
2022-11-30T01:00:45.007Z,101481.81
2022-11-30T01:03:13.121Z,101475.38
2022-11-30T01:05:40.967Z,101483.16
2022-11-30T01:08:10.574Z,101473.00
2022-11-30T01:10:39.529Z,101486.53
2022-11-30T01:13:07.456Z,101488.16
2022-11-30T01:15:43.523Z,101480.16
2022-11-30T01:18:11.580Z,101500.94
2022-11-30T01:20:43.291Z,101497.09
2022-11-30T01:23:11.439Z,101499.63
2022-11-30T01:25:39.156Z,101489.81
2022-11-30T01:28:07.047Z,101493.66
2022-11-30T01:30:34.281Z,101485.41
2022-11-30T01:33:06.116Z,101492.88
2022-11-30T01:35:33.256Z,101499.94
2022-11-30T01:38:00.797Z,101482.06
2022-11-30T01:40:27.935Z,101498.75
2022-11-30T01:42:55.402Z,101491.69
2022-11-30T01:45:22.773Z,101493.38
2022-11-30T01:47:56.844Z,101494.38
2022-11-30T01:50:32.957Z,101489.38
2022-11-30T01:53:02.792Z,101487.38
2022-11-30T01:55:35.047Z,101484.16
2022-11-30T01:58:09.518Z,101495.44
2022-11-30T02:00:36.675Z,101490.25
2022-11-30T02:03:13.534Z,101486.41
2022-11-30T02:05:41.903Z,101493.56
2022-11-30T02:08:11.198Z,101479.97
2022-11-30T02:10:42.950Z,101493.00
2022-11-30T02:13:16.048Z,101486.63
2022-11-30T02:16:07.713Z,101488.06
2022-11-30T02:18:38.384Z,101486.16
2022-11-30T02:21:13.445Z,101467.94
2022-11-30T02:24:09.299Z,101485.97
2022-11-30T02:27:00.108Z,101491.59
2022-11-30T02:29:38.905Z,101488.84
2022-11-30T02:32:31.357Z,101492.66
2022-11-30T02:35:01.441Z,101496.75
2022-11-30T02:37:30.086Z,101497.47
2022-11-30T02:39:58.425Z,101494.03
2022-11-30T02:42:25.577Z,101496.28
2022-11-30T02:44:54.183Z,101503.41
2022-11-30T02:47:59.458Z,101506.97
2022-11-30T02:50:34.020Z,101492.66
2022-11-30T02:53:01.587Z,101503.03
2022-11-30T02:55:30.005Z,101493.00
2022-11-30T02:57:57.130Z,101495.34
2022-11-30T03:00:24.774Z,101489.59
2022-11-30T03:02:51.963Z,101495.28
2022-11-30T03:05:19.450Z,101501.00
2022-11-30T03:07:46.785Z,101486.72
2022-11-30T03:10:14.425Z,101495.72
2022-11-30T03:12:41.554Z,101493.16
2022-11-30T03:15:09.279Z,101492.00
2022-11-30T03:17:36.499Z,101504.50
2022-11-30T03:20:04.579Z,101485.22
2022-11-30T03:22:31.749Z,101499.72
2022-11-30T03:24:59.324Z,101508.56
2022-11-30T03:27:26.558Z,101516.38
2022-11-30T03:29:54.125Z,101513.03
2022-11-30T03:32:21.288Z,101510.19
2022-11-30T03:34:48.997Z,101521.53
2022-11-30T03:37:16.363Z,101519.41
2022-11-30T03:39:43.803Z,101529.50
2022-11-30T03:42:11.209Z,101519.56
2022-11-30T03:44:38.691Z,101536.06
2022-11-30T03:47:05.919Z,101525.78
2022-11-30T03:49:33.339Z,101536.34
2022-11-30T03:52:00.512Z,101530.81
2022-11-30T03:54:27.929Z,101538.34
2022-11-30T03:56:55.045Z,101542.81
2022-11-30T03:59:22.483Z,101539.66
2022-11-30T04:01:49.652Z,101540.63
2022-11-30T04:04:17.222Z,101550.81
2022-11-30T04:06:44.346Z,101552.81
2022-11-30T04:09:11.889Z,101543.19
2022-11-30T04:11:39.062Z,101543.03
2022-11-30T04:14:06.549Z,101542.56
2022-11-30T04:16:33.782Z,101546.47
2022-11-30T04:19:01.342Z,101537.78
2022-11-30T04:21:28.508Z,101539.03
2022-11-30T04:23:55.970Z,101535.75
2022-11-30T04:26:23.298Z,101537.78
2022-11-30T04:28:50.753Z,101540.13
2022-11-30T04:31:17.912Z,101545.34
2022-11-30T04:33:45.418Z,101542.22
2022-11-30T04:36:22.553Z,101540.53
2022-11-30T04:38:50.016Z,101524.91
2022-11-30T04:41:17.241Z,101548.94
2022-11-30T04:43:44.745Z,101546.03
2022-11-30T04:46:12.179Z,101535.31
2022-11-30T04:48:39.702Z,101546.59
2022-11-30T04:51:08.758Z,101544.16
2022-11-30T04:53:37.537Z,101538.22
2022-11-30T04:56:09.673Z,101534.69
2022-11-30T04:58:38.765Z,101545.03
2022-11-30T05:01:06.361Z,101536.28
2022-11-30T05:03:33.853Z,101541.19
2022-11-30T05:06:01.123Z,101539.66
2022-11-30T05:08:28.590Z,101553.50
2022-11-30T05:10:56.033Z,101564.66
2022-11-30T05:13:25.373Z,101555.91
2022-11-30T05:15:53.927Z,101557.78
2022-11-30T05:18:22.286Z,101545.38
2022-11-30T05:20:51.091Z,101563.50
2022-11-30T05:23:19.726Z,101565.13
2022-11-30T05:25:47.429Z,101571.53
2022-11-30T05:28:15.327Z,101562.78
2022-11-30T05:30:43.386Z,101571.16
2022-11-30T05:33:11.761Z,101569.56
2022-11-30T05:35:39.015Z,101554.38
2022-11-30T05:38:06.945Z,101552.81
2022-11-30T05:40:34.133Z,101577.06
2022-11-30T05:43:02.925Z,101569.22
2022-11-30T05:45:30.655Z,101571.78
2022-11-30T05:47:58.223Z,101576.75
2022-11-30T05:50:25.364Z,101593.16
2022-11-30T05:52:56.540Z,101577.44
2022-11-30T05:55:24.841Z,101591.34
2022-11-30T05:57:52.784Z,101593.75
2022-11-30T06:00:21.327Z,101582.34
2022-11-30T06:02:48.925Z,101589.47
2022-11-30T06:05:16.450Z,101597.09
2022-11-30T06:07:43.922Z,101596.50
2022-11-30T06:10:11.813Z,101597.13
2022-11-30T06:12:39.738Z,101601.53
2022-11-30T06:15:08.059Z,101582.03
2022-11-30T06:17:37.990Z,101591.34
2022-11-30T06:20:06.856Z,101601.00
2022-11-30T06:22:34.343Z,101595.53
2022-11-30T06:25:01.523Z,101601.34
2022-11-30T06:27:32.315Z,101598.06
2022-11-30T06:29:59.634Z,101606.66
2022-11-30T06:32:27.108Z,101607.13
2022-11-30T06:34:54.348Z,101615.13
2022-11-30T06:37:21.881Z,101598.78
2022-11-30T06:42:37.434Z,101610.75
2022-11-30T06:45:06.533Z,101614.56
2022-11-30T06:47:34.097Z,101616.94
2022-11-30T06:50:01.312Z,101622.66
2022-11-30T06:52:33.101Z,101624.34
2022-11-30T06:55:00.257Z,101623.06
2022-11-30T06:57:30.953Z,101640.41
2022-11-30T06:59:58.384Z,101622.00
2022-11-30T07:02:25.941Z,101637.00
2022-11-30T07:04:53.183Z,101635.31
2022-11-30T07:07:20.716Z,101640.47
2022-11-30T07:09:47.889Z,101631.81
2022-11-30T07:12:15.381Z,101627.69
2022-11-30T07:14:42.562Z,101634.25
2022-11-30T07:17:10.019Z,101642.13
2022-11-30T07:19:37.253Z,101638.66
2022-11-30T07:22:04.813Z,101653.44
2022-11-30T07:24:50.740Z,101650.91
2022-11-30T07:27:18.268Z,101657.84
2022-11-30T07:29:45.463Z,101659.91
2022-11-30T07:32:13.020Z,101653.47
2022-11-30T07:34:40.155Z,101658.97
2022-11-30T07:37:07.639Z,101659.34
2022-11-30T07:39:34.771Z,101669.34
2022-11-30T07:42:02.209Z,101667.69
2022-11-30T07:44:29.365Z,101650.03
2022-11-30T07:46:56.809Z,101660.75
2022-11-30T07:49:23.991Z,101664.81
2022-11-30T07:51:51.508Z,101650.81
2022-11-30T07:54:18.753Z,101643.09
2022-11-30T07:56:46.391Z,101660.94
2022-11-30T07:59:13.529Z,101657.06
2022-11-30T08:01:41.187Z,101649.09
2022-11-30T08:04:08.823Z,101652.75
2022-11-30T08:06:36.521Z,101656.13
2022-11-30T08:09:04.314Z,101666.44
2022-11-30T08:11:34.957Z,101653.38
2022-11-30T08:14:03.173Z,101665.97
2022-11-30T08:16:34.982Z,101662.84
2022-11-30T08:19:02.421Z,101659.47
2022-11-30T08:21:31.974Z,101663.94
2022-11-30T08:23:59.309Z,101663.06
2022-11-30T08:26:30.188Z,101651.59
2022-11-30T08:28:59.067Z,101665.13
2022-11-30T08:31:30.785Z,101663.84
2022-11-30T08:34:04.508Z,101673.03
2022-11-30T08:36:32.919Z,101670.25
2022-11-30T08:39:02.455Z,101665.56
2022-11-30T08:41:29.945Z,101665.75
2022-11-30T08:43:57.317Z,101666.97
2022-11-30T08:49:21.681Z,101682.41
2022-11-30T08:54:39.601Z,101685.28
2022-11-30T08:57:07.035Z,101685.59
2022-11-30T08:59:34.349Z,101689.53
2022-11-30T09:02:02.006Z,101691.06
2022-11-30T09:04:29.161Z,101698.31
2022-11-30T09:06:59.294Z,101696.66
2022-11-30T09:09:27.024Z,101694.59
2022-11-30T09:11:54.609Z,101697.72
2022-11-30T09:14:21.793Z,101691.09
2022-11-30T09:16:49.329Z,101688.59
2022-11-30T09:19:16.475Z,101693.97
2022-11-30T09:21:51.038Z,101698.38
2022-11-30T09:24:19.854Z,101699.78
2022-11-30T09:26:47.764Z,101703.19
2022-11-30T09:29:14.933Z,101697.38
2022-11-30T09:31:42.340Z,101688.44
2022-11-30T09:34:11.521Z,101694.69
2022-11-30T09:36:39.077Z,101696.69
2022-11-30T09:39:06.812Z,101689.94
2022-11-30T09:41:34.350Z,101696.22
2022-11-30T09:44:32.307Z,101707.13
2022-11-30T09:47:31.841Z,101701.63
2022-11-30T09:50:05.132Z,101694.09
2022-11-30T09:52:53.247Z,101697.97
2022-11-30T09:55:42.137Z,101684.88
2022-11-30T09:58:23.207Z,101700.34
2022-11-30T10:00:50.420Z,101689.66
2022-11-30T10:03:22.232Z,101685.78
2022-11-30T10:05:57.272Z,101695.28
2022-11-30T10:08:50.491Z,101693.22
2022-11-30T10:11:18.059Z,101690.81
2022-11-30T10:14:07.080Z,101685.34
2022-11-30T10:16:55.955Z,101690.88
2022-11-30T10:19:51.693Z,101687.03
2022-11-30T10:22:31.979Z,101664.50
2022-11-30T10:25:11.647Z,101684.97
2022-11-30T10:28:17.804Z,101688.69
2022-11-30T10:30:49.578Z,101682.50
2022-11-30T10:33:23.399Z,101684.59
2022-11-30T10:35:58.193Z,101688.31
2022-11-30T10:38:30.654Z,101678.56
2022-11-30T10:41:10.318Z,101677.22
2022-11-30T10:43:44.358Z,101688.31
2022-11-30T10:46:22.368Z,101687.09
2022-11-30T10:48:59.629Z,101680.84
2022-11-30T10:51:27.726Z,101680.47
2022-11-30T10:53:55.337Z,101695.50
2022-11-30T10:56:22.840Z,101682.16
2022-11-30T10:59:10.684Z,101686.47
2022-11-30T11:01:41.011Z,101688.59
2022-11-30T11:04:08.341Z,101684.84
2022-11-30T11:06:36.782Z,101692.06
2022-11-30T11:09:34.464Z,101681.41
2022-11-30T11:12:20.672Z,101693.28
2022-11-30T11:14:48.142Z,101688.44
2022-11-30T11:17:18.573Z,101697.16
2022-11-30T11:19:48.000Z,101684.78
2022-11-30T11:22:22.981Z,101690.03
2022-11-30T11:24:56.332Z,101685.00
2022-11-30T11:27:33.216Z,101679.84
2022-11-30T11:30:26.830Z,101692.16
2022-11-30T11:33:13.694Z,101693.75
2022-11-30T11:35:49.309Z,101684.84
2022-11-30T11:38:27.562Z,101673.66
2022-11-30T11:41:21.531Z,101680.34
2022-11-30T11:44:02.749Z,101693.69
2022-11-30T11:46:32.635Z,101685.16
2022-11-30T11:49:22.662Z,101689.97
2022-11-30T11:52:01.271Z,101688.88
2022-11-30T11:54:35.404Z,101682.69
2022-11-30T11:57:03.197Z,101691.25
2022-11-30T11:59:42.345Z,101682.22
2022-11-30T12:02:12.491Z,101692.34
2022-11-30T12:04:44.183Z,101693.38
2022-11-30T12:07:23.018Z,101698.22
2022-11-30T12:10:43.704Z,101688.47
2022-11-30T12:13:02.510Z,101700.84
2022-11-30T12:15:44.544Z,101690.44
2022-11-30T12:18:24.507Z,101697.16
2022-11-30T12:21:07.526Z,101697.97
2022-11-30T12:23:50.440Z,101698.91
2022-11-30T12:26:27.075Z,101701.94
2022-11-30T12:29:20.720Z,101695.91
2022-11-30T12:32:00.944Z,101702.63
2022-11-30T12:34:57.225Z,101709.00
2022-11-30T12:37:30.597Z,101705.28
2022-11-30T12:40:32.919Z,101706.63
2022-11-30T12:43:10.177Z,101704.44
2022-11-30T12:45:46.386Z,101703.75
2022-11-30T12:48:50.061Z,101707.75
2022-11-30T12:51:57.768Z,101714.00
2022-11-30T12:54:41.598Z,101723.78
2022-11-30T12:57:14.399Z,101725.63
2022-11-30T12:59:56.327Z,101714.66
2022-11-30T13:02:41.664Z,101723.44
2022-11-30T13:05:21.390Z,101722.44
2022-11-30T13:07:57.003Z,101723.25
2022-11-30T13:10:30.861Z,101719.91
2022-11-30T13:13:00.961Z,101725.44
2022-11-30T13:15:31.446Z,101726.47
2022-11-30T13:17:59.577Z,101717.63
2022-11-30T13:20:48.386Z,101716.06
2022-11-30T13:23:41.731Z,101721.91
2022-11-30T13:26:27.995Z,101721.00
2022-11-30T13:29:17.910Z,101707.16
2022-11-30T13:32:05.504Z,101721.59
2022-11-30T13:34:33.117Z,101724.13
2022-11-30T13:37:07.784Z,101722.06
2022-11-30T13:39:41.702Z,101733.81
2022-11-30T13:42:14.003Z,101706.59
2022-11-30T13:44:41.723Z,101724.59
2022-11-30T13:47:34.422Z,101727.16
2022-11-30T13:50:09.426Z,101730.41
2022-11-30T13:52:58.748Z,101724.34
2022-11-30T13:55:53.341Z,101729.06
2022-11-30T13:58:21.341Z,101735.00
2022-11-30T14:01:05.552Z,101729.25
2022-11-30T14:03:33.756Z,101735.47
2022-11-30T14:06:05.396Z,101735.69
2022-11-30T14:08:37.262Z,101739.78
2022-11-30T14:11:39.776Z,101732.13
2022-11-30T14:14:45.861Z,101738.22
2022-11-30T14:17:19.711Z,101747.56
2022-11-30T14:19:50.758Z,101742.25
2022-11-30T14:22:18.599Z,101733.66
2022-11-30T14:24:48.195Z,101750.28
2022-11-30T14:27:18.596Z,101736.25
2022-11-30T14:29:53.407Z,101740.91
2022-11-30T14:32:45.078Z,101747.66
2022-11-30T14:35:16.886Z,101740.22
2022-11-30T14:37:45.827Z,101740.69
2022-11-30T14:40:19.149Z,101752.53
2022-11-30T14:42:55.860Z,101734.16
2022-11-30T14:45:27.741Z,101754.63
2022-11-30T14:48:24.797Z,101744.59
2022-11-30T14:50:55.743Z,101734.53
2022-11-30T14:53:39.141Z,101739.19
2022-11-30T14:56:26.827Z,101739.13
2022-11-30T14:59:06.949Z,101729.88
2022-11-30T15:01:34.660Z,101735.47
2022-11-30T15:04:14.925Z,101731.38
2022-11-30T15:06:43.384Z,101737.63
2022-11-30T15:09:19.350Z,101750.47
2022-11-30T15:11:50.076Z,101743.84
2022-11-30T15:14:17.385Z,101748.41
2022-11-30T15:16:50.860Z,101740.88
2022-11-30T15:19:27.519Z,101733.84
2022-11-30T15:21:56.780Z,101749.22
2022-11-30T15:24:24.582Z,101746.31
2022-11-30T15:27:08.794Z,101750.22
2022-11-30T15:29:43.837Z,101752.75
2022-11-30T15:32:21.450Z,101750.28
2022-11-30T15:34:56.246Z,101741.53
2022-11-30T15:37:39.410Z,101752.09
2022-11-30T15:40:09.336Z,101753.44
2022-11-30T15:42:43.775Z,101746.81
2022-11-30T15:45:23.761Z,101739.75
2022-11-30T15:47:53.315Z,101748.22
2022-11-30T15:50:26.637Z,101746.81
2022-11-30T15:52:56.021Z,101750.91
2022-11-30T15:55:49.379Z,101753.31
2022-11-30T15:58:45.664Z,101754.84
2022-11-30T16:01:20.565Z,101739.53
2022-11-30T16:04:07.004Z,101749.28
2022-11-30T16:06:44.174Z,101756.19
2022-11-30T16:09:34.991Z,101757.31
2022-11-30T16:12:02.532Z,101760.38
2022-11-30T16:14:30.057Z,101753.50
2022-11-30T16:16:57.535Z,101765.66
2022-11-30T16:19:25.069Z,101756.00
2022-11-30T16:21:52.423Z,101766.09
2022-11-30T16:24:20.467Z,101756.41
2022-11-30T16:26:51.770Z,101768.84
2022-11-30T16:29:20.618Z,101762.81
2022-11-30T16:31:48.177Z,101771.25
2022-11-30T16:34:15.698Z,101758.31
2022-11-30T16:36:42.890Z,101751.25
2022-11-30T16:39:12.803Z,101778.31
2022-11-30T16:41:39.962Z,101768.72
2022-11-30T16:44:13.684Z,101756.81
2022-11-30T16:46:41.042Z,101767.78
2022-11-30T16:49:08.785Z,101768.00
2022-11-30T16:51:36.497Z,101777.53
2022-11-30T16:54:04.526Z,101771.38
2022-11-30T16:56:31.881Z,101765.19
2022-11-30T16:58:59.414Z,101769.63
2022-11-30T17:01:35.756Z,101777.63
2022-11-30T17:04:15.367Z,101773.38
2022-11-30T17:06:43.403Z,101776.91
2022-11-30T17:09:15.409Z,101786.78
2022-11-30T17:11:43.546Z,101786.81
2022-11-30T17:14:13.609Z,101784.72
2022-11-30T17:16:41.404Z,101785.56
2022-11-30T17:19:09.702Z,101782.22
2022-11-30T17:21:38.579Z,101788.00
2022-11-30T17:24:07.352Z,101783.28
2022-11-30T17:26:34.555Z,101774.75
2022-11-30T17:29:02.343Z,101788.03
2022-11-30T17:31:30.050Z,101780.16
2022-11-30T17:33:57.559Z,101778.41
2022-11-30T17:36:24.814Z,101787.16
2022-11-30T17:38:52.311Z,101796.03
2022-11-30T17:41:20.204Z,101789.66
2022-11-30T17:43:48.997Z,101781.59
2022-11-30T17:46:18.192Z,101796.00
2022-11-30T17:48:46.133Z,101803.47
2022-11-30T17:51:13.752Z,101797.53
2022-11-30T17:53:42.772Z,101785.97
2022-11-30T17:56:12.449Z,101803.78
2022-11-30T17:58:43.796Z,101795.34
2022-11-30T18:01:18.415Z,101807.34
2022-11-30T18:03:46.844Z,101802.47
2022-11-30T18:06:14.731Z,101801.81
2022-11-30T18:08:42.585Z,101792.38
2022-11-30T18:11:11.512Z,101806.41
2022-11-30T18:13:40.369Z,101798.94
2022-11-30T18:16:16.729Z,101815.19
2022-11-30T18:18:47.749Z,101803.19
2022-11-30T18:21:21.456Z,101812.69
2022-11-30T18:23:50.069Z,101817.19
2022-11-30T18:26:20.014Z,101814.09
2022-11-30T18:28:51.870Z,101807.03
2022-11-30T18:31:19.316Z,101800.75
2022-11-30T18:33:46.979Z,101801.34
2022-11-30T18:36:14.454Z,101807.69
2022-11-30T18:38:42.050Z,101806.19
2022-11-30T18:41:10.352Z,101817.22
2022-11-30T18:43:38.538Z,101808.63
2022-11-30T18:46:08.478Z,101816.19
2022-11-30T18:48:36.590Z,101818.97
2022-11-30T18:51:11.281Z,101810.03
2022-11-30T18:53:38.800Z,101810.03
2022-11-30T18:56:20.718Z,101807.19
2022-11-30T18:58:48.512Z,101817.38
2022-11-30T19:01:20.145Z,101821.47
2022-11-30T19:03:54.912Z,101819.31
2022-11-30T19:06:24.746Z,101812.16
2022-11-30T19:08:52.366Z,101808.47
2022-11-30T19:11:19.930Z,101821.00
2022-11-30T19:13:47.522Z,101822.25
2022-11-30T19:16:17.124Z,101824.31
2022-11-30T19:18:47.629Z,101826.00
2022-11-30T19:21:18.035Z,101828.75
2022-11-30T19:23:46.316Z,101818.69
2022-11-30T19:26:14.377Z,101830.00
2022-11-30T19:28:43.715Z,101819.16
2022-11-30T19:31:16.897Z,101828.91
2022-11-30T19:33:47.773Z,101824.41
2022-11-30T19:36:19.244Z,101829.22
2022-11-30T19:38:47.573Z,101838.06
2022-11-30T19:41:16.026Z,101830.00
2022-11-30T19:43:54.773Z,101836.06
2022-11-30T19:46:23.655Z,101820.53
2022-11-30T19:49:00.719Z,101824.78
2022-11-30T19:51:30.284Z,101829.97
2022-11-30T19:53:59.380Z,101840.00
2022-11-30T19:56:29.079Z,101826.28
2022-11-30T19:59:02.721Z,101829.03
2022-11-30T20:01:32.383Z,101838.25
2022-11-30T20:04:00.096Z,101844.25
2022-11-30T20:06:29.723Z,101834.63
2022-11-30T20:08:57.464Z,101846.00
2022-11-30T20:11:25.380Z,101848.38
2022-11-30T20:13:52.990Z,101852.97
2022-11-30T20:16:22.429Z,101845.78
2022-11-30T20:18:58.062Z,101848.69
2022-11-30T20:21:28.354Z,101859.16
2022-11-30T20:24:00.656Z,101857.66
2022-11-30T20:26:32.261Z,101850.75
2022-11-30T20:29:02.660Z,101845.91
2022-11-30T20:31:31.645Z,101854.78
2022-11-30T20:33:59.682Z,101852.94
2022-11-30T20:36:27.353Z,101869.03
2022-11-30T20:38:55.478Z,101866.09
2022-11-30T20:41:24.150Z,101854.41
2022-11-30T20:43:52.853Z,101859.69
2022-11-30T20:46:22.780Z,101858.63
2022-11-30T20:48:51.186Z,101846.25
2022-11-30T20:51:30.851Z,101858.97
2022-11-30T20:54:00.913Z,101858.47
2022-11-30T20:56:28.192Z,101851.75
2022-11-30T20:58:56.204Z,101847.38
2022-11-30T21:01:23.759Z,101859.50
2022-11-30T21:03:51.374Z,101858.78
2022-11-30T21:06:18.689Z,101854.72
2022-11-30T21:08:46.382Z,101862.75
2022-11-30T21:11:16.649Z,101868.25
2022-11-30T21:13:46.151Z,101864.28
2022-11-30T21:16:15.659Z,101871.31
2022-11-30T21:18:45.468Z,101859.25
2022-11-30T21:21:18.705Z,101865.31
2022-11-30T21:23:47.320Z,101853.78
2022-11-30T21:26:26.300Z,101864.53
2022-11-30T21:28:56.017Z,101861.25
2022-11-30T21:31:23.894Z,101856.34
2022-11-30T21:33:53.658Z,101862.25
2022-11-30T21:36:22.894Z,101857.13
2022-11-30T21:39:01.074Z,101859.19
2022-11-30T21:41:32.310Z,101862.34
2022-11-30T21:44:00.015Z,101861.56
2022-11-30T21:46:27.381Z,101863.38
2022-11-30T21:48:54.968Z,101862.81
2022-11-30T21:51:25.319Z,101863.41
2022-11-30T21:53:56.141Z,101853.59
2022-11-30T21:56:26.238Z,101850.25
2022-11-30T21:58:57.646Z,101861.66
2022-11-30T22:01:36.854Z,101859.66
2022-11-30T22:04:07.518Z,101859.50
2022-11-30T22:06:36.977Z,101856.50
2022-11-30T22:09:10.264Z,101848.41
2022-11-30T22:11:39.867Z,101862.88
2022-11-30T22:14:11.833Z,101852.53
2022-11-30T22:16:39.593Z,101856.94
2022-11-30T22:19:07.417Z,101847.13
2022-11-30T22:21:35.642Z,101848.13
2022-11-30T22:24:09.667Z,101845.94
2022-11-30T22:26:42.526Z,101847.28
2022-11-30T22:29:18.554Z,101851.97
2022-11-30T22:31:48.132Z,101834.53
2022-11-30T22:34:15.852Z,101840.94
2022-11-30T22:36:44.638Z,101845.69
2022-11-30T22:39:17.647Z,101840.75
2022-11-30T22:41:51.234Z,101836.59
2022-11-30T22:44:22.210Z,101834.53
2022-11-30T22:46:49.573Z,101838.00
2022-11-30T22:49:21.370Z,101838.06
2022-11-30T22:51:49.544Z,101845.09
2022-11-30T22:54:17.163Z,101827.28
2022-11-30T22:56:46.603Z,101838.97
2022-11-30T22:59:15.678Z,101831.75
2022-11-30T23:01:46.017Z,101839.44
2022-11-30T23:04:18.861Z,101830.56
2022-11-30T23:06:47.583Z,101838.31
2022-11-30T23:09:20.338Z,101839.50
2022-11-30T23:11:47.882Z,101825.09
2022-11-30T23:14:16.593Z,101836.72
2022-11-30T23:16:45.078Z,101828.25
2022-11-30T23:19:13.024Z,101830.13
2022-11-30T23:21:42.476Z,101827.22
2022-11-30T23:24:14.262Z,101831.00
2022-11-30T23:26:41.895Z,101827.75
2022-11-30T23:29:13.636Z,101831.59
2022-11-30T23:31:42.222Z,101823.44
2022-11-30T23:34:17.263Z,101824.19
2022-11-30T23:36:44.702Z,101836.41
2022-11-30T23:39:14.894Z,101842.53
2022-11-30T23:41:42.740Z,101821.91
2022-11-30T23:44:11.099Z,101834.94
2022-11-30T23:46:38.525Z,101830.53
2022-11-30T23:49:06.320Z,101833.06
2022-11-30T23:51:33.752Z,101830.25
2022-11-30T23:54:01.269Z,101823.50
2022-11-30T23:56:28.497Z,101830.28
2022-11-30T23:58:56.031Z,101820.84
